createdAt,value
2018-01-28T00:00:16.838Z,98907.28
2018-01-28T00:00:48.478Z,98915.38
2018-01-28T00:01:20.173Z,98908.16
2018-01-28T00:01:51.821Z,98909.45
2018-01-28T00:02:23.473Z,98907.34
2018-01-28T00:02:55.132Z,98903.05
2018-01-28T00:03:26.757Z,98909.05
2018-01-28T00:03:58.382Z,98903.11
2018-01-28T00:04:30.007Z,98909.08
2018-01-28T00:05:01.629Z,98906.09
2018-01-28T00:05:33.258Z,98898.00
2018-01-28T00:06:04.921Z,98899.31
2018-01-28T00:06:36.574Z,98894.63
2018-01-28T00:07:08.197Z,98898.48
2018-01-28T00:07:39.817Z,98891.67
2018-01-28T00:08:11.440Z,98882.32
2018-01-28T00:08:43.102Z,98890.42
2018-01-28T00:09:14.730Z,98885.73
2018-01-28T00:09:46.593Z,98884.52
2018-01-28T00:10:18.213Z,98886.62
2018-01-28T00:10:49.833Z,98888.29
2018-01-28T00:11:21.457Z,98879.80
2018-01-28T00:11:53.077Z,98887.50
2018-01-28T00:12:24.718Z,98884.95
2018-01-28T00:12:56.370Z,98886.25
2018-01-28T00:13:28.042Z,98887.99
2018-01-28T00:13:59.662Z,98889.70
2018-01-28T00:14:31.289Z,98888.05
2018-01-28T00:15:02.910Z,98889.76
2018-01-28T00:15:34.686Z,98883.80
2018-01-28T00:16:06.326Z,98886.77
2018-01-28T00:16:37.965Z,98894.45
2018-01-28T00:17:09.606Z,98891.46
2018-01-28T00:17:41.254Z,98894.48
2018-01-28T00:18:12.901Z,98892.77
2018-01-28T00:18:44.549Z,98886.38
2018-01-28T00:19:16.173Z,98885.56
2018-01-28T00:19:47.797Z,98889.00
2018-01-28T00:20:19.464Z,98897.09
2018-01-28T00:20:51.094Z,98895.39
2018-01-28T00:21:22.717Z,98896.24
2018-01-28T00:21:54.345Z,98894.11
2018-01-28T00:22:25.970Z,98901.78
2018-01-28T00:22:57.597Z,98897.13
2018-01-28T00:23:29.238Z,98896.72
2018-01-28T00:24:00.865Z,98903.97
2018-01-28T00:24:32.490Z,98904.42
2018-01-28T00:25:04.118Z,98908.69
2018-01-28T00:25:35.793Z,98903.14
2018-01-28T00:26:07.437Z,98913.38
2018-01-28T00:26:39.065Z,98915.08
2018-01-28T00:27:10.685Z,98916.78
2018-01-28T00:27:42.305Z,98911.23
2018-01-28T00:28:13.930Z,98910.41
2018-01-28T00:28:45.550Z,98917.66
2018-01-28T00:29:17.170Z,98909.56
2018-01-28T00:29:48.792Z,98903.63
2018-01-28T00:30:20.417Z,98908.71
2018-01-28T00:30:52.090Z,98912.97
2018-01-28T00:31:23.713Z,98907.44
2018-01-28T00:31:55.337Z,98910.42
2018-01-28T00:32:26.962Z,98904.42
2018-01-28T00:32:58.589Z,98909.93
2018-01-28T00:33:30.213Z,98911.64
2018-01-28T00:34:01.834Z,98901.84
2018-01-28T00:34:33.461Z,98908.20
2018-01-28T00:35:05.090Z,98905.19
2018-01-28T00:35:36.716Z,98907.32
2018-01-28T00:36:08.382Z,98902.20
2018-01-28T00:36:40.006Z,98899.62
2018-01-28T00:37:11.633Z,98898.38
2018-01-28T00:37:43.257Z,98901.33
2018-01-28T00:38:14.887Z,98897.45
2018-01-28T00:38:46.513Z,98897.45
2018-01-28T00:39:18.141Z,98899.20
2018-01-28T00:39:49.761Z,98902.17
2018-01-28T00:40:21.390Z,98900.90
2018-01-28T00:40:53.012Z,98900.08
2018-01-28T00:41:24.674Z,98903.03
2018-01-28T00:41:56.298Z,98907.29
2018-01-28T00:42:27.925Z,98899.62
2018-01-28T00:42:59.549Z,98902.60
2018-01-28T00:43:31.214Z,98906.41
2018-01-28T00:44:02.842Z,98904.67
2018-01-28T00:44:34.465Z,98900.41
2018-01-28T00:45:06.094Z,98899.98
2018-01-28T00:45:37.721Z,98896.58
2018-01-28T00:46:09.345Z,98894.45
2018-01-28T00:46:41.014Z,98900.35
2018-01-28T00:47:12.646Z,98900.29
2018-01-28T00:47:44.274Z,98896.84
2018-01-28T00:48:15.898Z,98898.13
2018-01-28T00:48:47.565Z,98892.16
2018-01-28T00:49:19.185Z,98894.29
2018-01-28T00:49:50.805Z,98884.91
2018-01-28T00:50:22.431Z,98891.70
2018-01-28T00:50:54.054Z,98878.88
2018-01-28T00:51:25.682Z,98877.17
2018-01-28T00:51:57.310Z,98880.94
2018-01-28T00:52:28.978Z,98879.63
2018-01-28T00:53:00.606Z,98877.46
2018-01-28T00:53:32.225Z,98875.72
2018-01-28T00:54:03.850Z,98871.45
2018-01-28T00:54:35.474Z,98878.70
2018-01-28T00:55:07.094Z,98867.63
2018-01-28T00:55:38.717Z,98867.23
2018-01-28T00:56:10.351Z,98870.67
2018-01-28T00:56:41.973Z,98863.85
2018-01-28T00:57:13.637Z,98866.88
2018-01-28T00:57:45.298Z,98861.33
2018-01-28T00:58:16.921Z,98859.63
2018-01-28T00:58:48.545Z,98858.77
2018-01-28T00:59:20.170Z,98857.06
2018-01-28T00:59:51.791Z,98857.03
2018-01-28T01:00:23.414Z,98860.44
2018-01-28T01:00:55.042Z,98859.63
2018-01-28T01:01:26.661Z,98856.56
2018-01-28T01:01:58.289Z,98853.62
2018-01-28T01:02:29.949Z,98853.97
2018-01-28T01:03:01.569Z,98854.83
2018-01-28T01:03:33.196Z,98853.16
2018-01-28T01:04:04.826Z,98855.28
2018-01-28T01:04:36.457Z,98852.30
2018-01-28T01:05:08.086Z,98846.30
2018-01-28T01:05:39.714Z,98847.16
2018-01-28T01:06:11.343Z,98850.59
2018-01-28T01:06:42.965Z,98845.91
2018-01-28T01:07:14.589Z,98847.97
2018-01-28T01:07:46.254Z,98842.34
2018-01-28T01:08:18.590Z,98845.76
2018-01-28T01:08:50.214Z,98847.47
2018-01-28T01:09:21.841Z,98847.47
2018-01-28T01:09:53.510Z,98853.02
2018-01-28T01:10:25.134Z,98844.48
2018-01-28T01:10:56.754Z,98849.59
2018-01-28T01:11:28.378Z,98844.06
2018-01-28T01:12:00.011Z,98851.30
2018-01-28T01:12:31.638Z,98849.17
2018-01-28T01:13:03.305Z,98847.89
2018-01-28T01:13:34.938Z,98848.28
2018-01-28T01:14:06.573Z,98847.03
2018-01-28T01:14:38.193Z,98837.58
2018-01-28T01:15:09.821Z,98835.02
2018-01-28T01:15:41.630Z,98834.63
2018-01-28T01:16:13.306Z,98835.95
2018-01-28T01:16:44.917Z,98837.27
2018-01-28T01:17:16.591Z,98839.36
2018-01-28T01:17:48.197Z,98839.36
2018-01-28T01:18:19.861Z,98834.25
2018-01-28T01:18:55.605Z,98830.83
2018-01-28T01:19:27.229Z,98829.59
2018-01-28T01:19:58.854Z,98834.64
2018-01-28T01:20:30.473Z,98838.05
2018-01-28T01:21:02.094Z,98833.78
2018-01-28T01:21:33.717Z,98839.75
2018-01-28T01:22:05.378Z,98834.20
2018-01-28T01:22:37.121Z,98829.55
2018-01-28T01:23:08.982Z,98828.31
2018-01-28T01:23:40.873Z,98825.79
2018-01-28T01:24:12.514Z,98821.10
2018-01-28T01:24:44.142Z,98822.45
2018-01-28T01:25:15.769Z,98823.73
2018-01-28T01:25:47.393Z,98825.90
2018-01-28T01:26:19.021Z,98825.02
2018-01-28T01:26:50.641Z,98819.94
2018-01-28T01:27:22.317Z,98824.66
2018-01-28T01:27:53.942Z,98816.12
2018-01-28T01:28:25.570Z,98824.66
2018-01-28T01:28:57.397Z,98828.11
2018-01-28T01:29:29.032Z,98828.14
2018-01-28T01:30:00.662Z,98835.39
2018-01-28T01:30:32.295Z,98828.57
2018-01-28T01:31:03.958Z,98829.85
2018-01-28T01:31:35.586Z,98834.15
2018-01-28T01:32:07.214Z,98826.94
2018-01-28T01:32:38.890Z,98823.52
2018-01-28T01:33:10.518Z,98825.69
2018-01-28T01:33:42.142Z,98823.98
2018-01-28T01:34:13.765Z,98820.58
2018-01-28T01:34:45.393Z,98815.92
2018-01-28T01:35:17.022Z,98821.47
2018-01-28T01:35:48.644Z,98816.42
2018-01-28T01:36:20.275Z,98818.55
2018-01-28T01:36:51.898Z,98818.97
2018-01-28T01:37:23.520Z,98810.02
2018-01-28T01:37:55.193Z,98809.63
2018-01-28T01:38:26.817Z,98809.24
2018-01-28T01:38:58.441Z,98804.98
2018-01-28T01:39:30.066Z,98808.78
2018-01-28T01:40:01.689Z,98811.37
2018-01-28T01:40:33.313Z,98813.93
2018-01-28T01:41:04.942Z,98814.75
2018-01-28T01:41:36.568Z,98810.48
2018-01-28T01:42:08.190Z,98814.32
2018-01-28T01:42:39.817Z,98812.19
2018-01-28T01:43:11.485Z,98813.89
2018-01-28T01:43:43.109Z,98805.37
2018-01-28T01:44:14.729Z,98813.89
2018-01-28T01:44:46.359Z,98813.89
2018-01-28T01:45:17.990Z,98812.16
2018-01-28T01:45:49.617Z,98812.58
2018-01-28T01:46:21.242Z,98809.20
2018-01-28T01:46:52.865Z,98809.20
2018-01-28T01:47:24.485Z,98805.37
2018-01-28T01:47:56.105Z,98803.63
2018-01-28T01:48:27.784Z,98803.20
2018-01-28T01:48:59.410Z,98807.92
2018-01-28T01:49:31.034Z,98799.80
2018-01-28T01:50:02.660Z,98801.92
2018-01-28T01:50:34.285Z,98804.09
2018-01-28T01:51:05.914Z,98806.62
2018-01-28T01:51:37.538Z,98807.86
2018-01-28T01:52:09.166Z,98796.84
2018-01-28T01:52:40.794Z,98800.58
2018-01-28T01:53:12.422Z,98806.97
2018-01-28T01:53:44.114Z,98813.80
2018-01-28T01:54:15.742Z,98806.58
2018-01-28T01:54:47.365Z,98804.48
2018-01-28T01:55:18.994Z,98805.77
2018-01-28T01:55:50.621Z,98810.88
2018-01-28T01:56:22.245Z,98805.34
2018-01-28T01:56:53.869Z,98806.58
2018-01-28T01:57:25.513Z,98803.17
2018-01-28T01:57:57.157Z,98805.30
2018-01-28T01:58:28.777Z,98799.34
2018-01-28T01:59:00.437Z,98796.78
2018-01-28T01:59:32.058Z,98794.65
2018-01-28T02:00:03.686Z,98795.50
2018-01-28T02:00:35.309Z,98795.95
2018-01-28T02:01:06.941Z,98798.09
2018-01-28T02:01:38.569Z,98791.63
2018-01-28T02:02:10.198Z,98794.19
2018-01-28T02:02:41.826Z,98794.61
2018-01-28T02:03:13.455Z,98790.38
2018-01-28T02:03:45.082Z,98790.77
2018-01-28T02:04:16.752Z,98790.77
2018-01-28T02:04:48.378Z,98784.41
2018-01-28T02:05:20.006Z,98780.61
2018-01-28T02:05:51.629Z,98776.74
2018-01-28T02:06:23.306Z,98771.23
2018-01-28T02:06:54.913Z,98764.84
2018-01-28T02:07:26.538Z,98760.59
2018-01-28T02:07:58.158Z,98755.08
2018-01-28T02:08:29.778Z,98749.50
2018-01-28T02:09:01.398Z,98748.22
2018-01-28T02:09:33.025Z,98747.80
2018-01-28T02:10:04.653Z,98742.26
2018-01-28T02:10:36.323Z,98735.44
2018-01-28T02:11:07.945Z,98738.77
2018-01-28T02:11:39.785Z,98734.86
2018-01-28T02:12:11.446Z,98736.99
2018-01-28T02:12:43.105Z,98731.91
2018-01-28T02:13:14.729Z,98745.09
2018-01-28T02:13:46.358Z,98731.02
2018-01-28T02:14:17.985Z,98732.69
2018-01-28T02:14:49.613Z,98722.92
2018-01-28T02:15:21.237Z,98731.36
2018-01-28T02:15:52.906Z,98738.14
2018-01-28T02:16:24.570Z,98733.84
2018-01-28T02:16:56.198Z,98731.36
2018-01-28T02:17:27.826Z,98729.62
2018-01-28T02:17:59.489Z,98730.43
2018-01-28T02:18:31.119Z,98726.55
2018-01-28T02:19:02.749Z,98726.13
2018-01-28T02:19:34.373Z,98726.98
2018-01-28T02:20:06.002Z,98723.11
2018-01-28T02:20:37.629Z,98715.00
2018-01-28T02:21:09.259Z,98719.27
2018-01-28T02:21:40.881Z,98714.14
2018-01-28T02:22:12.510Z,98720.97
2018-01-28T02:22:44.138Z,98721.82
2018-01-28T02:23:15.770Z,98715.04
2018-01-28T02:23:47.393Z,98717.17
2018-01-28T02:24:19.019Z,98706.98
2018-01-28T02:24:50.650Z,98714.58
2018-01-28T02:25:22.277Z,98717.59
2018-01-28T02:25:53.906Z,98709.54
2018-01-28T02:26:25.530Z,98711.25
2018-01-28T02:26:57.198Z,98700.16
2018-01-28T02:27:28.826Z,98678.08
2018-01-28T02:28:00.449Z,98700.03
2018-01-28T02:28:32.078Z,98696.19
2018-01-28T02:29:03.706Z,98706.43
2018-01-28T02:29:35.382Z,98703.06
2018-01-28T02:30:07.033Z,98699.22
2018-01-28T02:30:38.658Z,98705.11
2018-01-28T02:31:10.286Z,98703.79
2018-01-28T02:31:41.954Z,98700.77
2018-01-28T02:32:13.635Z,98703.36
2018-01-28T02:32:45.261Z,98693.16
2018-01-28T02:33:16.882Z,98691.94
2018-01-28T02:33:48.501Z,98688.94
2018-01-28T02:34:20.126Z,98692.32
2018-01-28T02:34:51.754Z,98693.98
2018-01-28T02:35:23.377Z,98692.27
2018-01-28T02:35:55.001Z,98688.34
2018-01-28T02:36:26.674Z,98676.41
2018-01-28T02:36:58.466Z,98678.16
2018-01-28T02:37:30.105Z,98674.70
2018-01-28T02:38:01.734Z,98672.19
2018-01-28T02:38:33.358Z,98666.30
2018-01-28T02:39:04.981Z,98661.19
2018-01-28T02:39:36.601Z,98661.70
2018-01-28T02:40:08.231Z,98658.33
2018-01-28T02:40:39.857Z,98661.83
2018-01-28T02:41:11.477Z,98655.02
2018-01-28T02:41:43.097Z,98651.66
2018-01-28T02:42:14.765Z,98638.91
2018-01-28T02:42:46.385Z,98645.72
2018-01-28T02:43:18.005Z,98637.16
2018-01-28T02:43:49.625Z,98625.27
2018-01-28T02:44:21.255Z,98638.09
2018-01-28T02:44:52.886Z,98629.57
2018-01-28T02:45:24.518Z,98631.28
2018-01-28T02:45:56.146Z,98632.94
2018-01-28T02:46:27.781Z,98624.45
2018-01-28T02:46:59.409Z,98632.56
2018-01-28T02:47:31.029Z,98630.47
2018-01-28T02:48:02.706Z,98638.18
2018-01-28T02:48:34.338Z,98632.60
2018-01-28T02:49:05.961Z,98627.02
2018-01-28T02:49:37.589Z,98633.41
2018-01-28T02:50:09.218Z,98621.09
2018-01-28T02:50:40.850Z,98623.66
2018-01-28T02:51:12.473Z,98633.88
2018-01-28T02:51:44.102Z,98629.23
2018-01-28T02:52:15.725Z,98631.02
2018-01-28T02:52:47.381Z,98625.48
2018-01-28T02:53:19.069Z,98628.46
2018-01-28T02:53:50.694Z,98630.98
2018-01-28T02:54:22.322Z,98629.28
2018-01-28T02:54:54.011Z,98622.88
2018-01-28T02:55:25.638Z,98627.11
2018-01-28T02:55:57.262Z,98626.24
2018-01-28T02:56:28.886Z,98611.84
2018-01-28T02:57:00.514Z,98620.79
2018-01-28T02:57:32.145Z,98616.57
2018-01-28T02:58:03.783Z,98611.50
2018-01-28T02:58:35.410Z,98613.17
2018-01-28T02:59:07.037Z,98618.23
2018-01-28T02:59:38.661Z,98610.57
2018-01-28T03:00:10.334Z,98600.38
2018-01-28T03:00:41.957Z,98603.41
2018-01-28T03:01:13.581Z,98603.41
2018-01-28T03:01:45.202Z,98604.30
2018-01-28T03:02:16.825Z,98612.86
2018-01-28T03:02:48.445Z,98608.17
2018-01-28T03:03:20.069Z,98619.25
2018-01-28T03:03:51.689Z,98615.38
2018-01-28T03:04:23.309Z,98613.67
2018-01-28T03:04:54.933Z,98606.44
2018-01-28T03:05:26.609Z,98606.85
2018-01-28T03:05:58.229Z,98600.84
2018-01-28T03:06:29.849Z,98598.72
2018-01-28T03:07:01.474Z,98593.22
2018-01-28T03:07:33.093Z,98597.02
2018-01-28T03:08:04.717Z,98602.59
2018-01-28T03:08:36.338Z,98590.24
2018-01-28T03:09:07.972Z,98595.34
2018-01-28T03:09:39.603Z,98594.50
2018-01-28T03:10:11.225Z,98594.92
2018-01-28T03:10:42.913Z,98591.94
2018-01-28T03:11:14.542Z,98591.52
2018-01-28T03:11:46.166Z,98589.42
2018-01-28T03:12:17.790Z,98585.21
2018-01-28T03:12:49.421Z,98593.73
2018-01-28T03:13:21.043Z,98591.22
2018-01-28T03:13:52.670Z,98586.09
2018-01-28T03:14:24.298Z,98583.55
2018-01-28T03:14:55.930Z,98580.56
2018-01-28T03:15:27.554Z,98578.44
2018-01-28T03:15:59.222Z,98578.82
2018-01-28T03:16:30.849Z,98580.05
2018-01-28T03:17:02.478Z,98578.78
2018-01-28T03:17:34.142Z,98563.44
2018-01-28T03:18:05.770Z,98568.55
2018-01-28T03:18:37.397Z,98568.03
2018-01-28T03:19:09.026Z,98571.44
2018-01-28T03:19:40.659Z,98559.52
2018-01-28T03:20:12.289Z,98557.42
2018-01-28T03:20:43.918Z,98549.75
2018-01-28T03:21:15.542Z,98554.44
2018-01-28T03:21:47.213Z,98552.70
2018-01-28T03:22:18.833Z,98547.58
2018-01-28T03:22:50.458Z,98556.10
2018-01-28T03:23:22.202Z,98550.56
2018-01-28T03:23:55.250Z,98550.95
2018-01-28T03:24:26.900Z,98543.28
2018-01-28T03:24:58.529Z,98541.19
2018-01-28T03:25:30.153Z,98536.11
2018-01-28T03:26:01.783Z,98527.17
2018-01-28T03:26:33.410Z,98530.95
2018-01-28T03:27:05.086Z,98529.63
2018-01-28T03:27:36.714Z,98521.06
2018-01-28T03:28:08.337Z,98517.19
2018-01-28T03:28:39.967Z,98514.53
2018-01-28T03:29:11.593Z,98518.75
2018-01-28T03:29:43.213Z,98509.70
2018-01-28T03:30:14.895Z,98506.71
2018-01-28T03:30:46.529Z,98503.72
2018-01-28T03:31:18.173Z,98497.75
2018-01-28T03:31:49.841Z,98493.85
2018-01-28T03:32:21.481Z,98494.29
2018-01-28T03:32:53.129Z,98487.84
2018-01-28T03:33:24.773Z,98497.22
2018-01-28T03:33:56.422Z,98507.07
2018-01-28T03:34:28.101Z,98510.87
2018-01-28T03:34:59.752Z,98510.86
2018-01-28T03:35:31.406Z,98509.59
2018-01-28T03:36:03.034Z,98510.06
2018-01-28T03:36:34.677Z,98523.75
2018-01-28T03:37:06.337Z,98511.81
2018-01-28T03:37:37.989Z,98513.95
2018-01-28T03:38:09.641Z,98519.05
2018-01-28T03:38:41.269Z,98511.41
2018-01-28T03:39:12.941Z,98518.66
2018-01-28T03:39:44.583Z,98509.70
2018-01-28T03:40:16.210Z,98514.82
2018-01-28T03:40:47.833Z,98505.42
2018-01-28T03:41:19.453Z,98512.20
2018-01-28T03:41:51.073Z,98505.43
2018-01-28T03:42:22.698Z,98508.84
2018-01-28T03:42:54.322Z,98510.59
2018-01-28T03:43:25.954Z,98500.37
2018-01-28T03:43:57.577Z,98513.16
2018-01-28T03:44:29.246Z,98514.81
2018-01-28T03:45:00.874Z,98520.77
2018-01-28T03:45:32.502Z,98512.26
2018-01-28T03:46:04.130Z,98520.36
2018-01-28T03:46:35.754Z,98523.77
2018-01-28T03:47:07.426Z,98524.61
2018-01-28T03:47:39.049Z,98530.10
2018-01-28T03:48:10.678Z,98535.68
2018-01-28T03:48:42.305Z,98536.86
2018-01-28T03:49:13.974Z,98537.24
2018-01-28T03:49:45.601Z,98539.70
2018-01-28T03:50:17.229Z,98551.59
2018-01-28T03:50:48.862Z,98545.58
2018-01-28T03:51:20.489Z,98549.52
2018-01-28T03:51:52.112Z,98548.19
2018-01-28T03:52:23.738Z,98546.95
2018-01-28T03:52:55.401Z,98546.48
2018-01-28T03:53:27.021Z,98544.86
2018-01-28T03:53:58.645Z,98554.69
2018-01-28T03:54:30.270Z,98553.07
2018-01-28T03:55:01.938Z,98550.08
2018-01-28T03:55:33.561Z,98548.38
2018-01-28T03:56:05.190Z,98545.39
2018-01-28T03:56:36.821Z,98546.67
2018-01-28T03:57:08.450Z,98549.70
2018-01-28T03:57:40.073Z,98553.92
2018-01-28T03:58:11.697Z,98553.06
2018-01-28T03:58:43.330Z,98540.66
2018-01-28T03:59:14.993Z,98543.59
2018-01-28T03:59:46.618Z,98550.70
2018-01-28T04:00:18.245Z,98549.41
2018-01-28T04:00:49.878Z,98553.40
2018-01-28T04:01:21.501Z,98550.51
2018-01-28T04:01:53.131Z,98551.38
2018-01-28T04:02:24.766Z,98552.31
2018-01-28T04:02:56.394Z,98562.98
2018-01-28T04:03:28.022Z,98552.08
2018-01-28T04:03:59.646Z,98560.43
2018-01-28T04:04:31.270Z,98558.66
2018-01-28T04:05:02.938Z,98559.80
2018-01-28T04:05:34.566Z,98554.30
2018-01-28T04:06:06.190Z,98562.83
2018-01-28T04:06:37.815Z,98565.38
2018-01-28T04:07:09.446Z,98568.89
2018-01-28T04:07:41.074Z,98562.55
2018-01-28T04:08:12.738Z,98568.52
2018-01-28T04:08:44.378Z,98560.43
2018-01-28T04:09:16.006Z,98568.09
2018-01-28T04:09:47.633Z,98569.00
2018-01-28T04:10:19.258Z,98567.29
2018-01-28T04:10:50.929Z,98563.83
2018-01-28T04:11:22.557Z,98565.59
2018-01-28T04:11:54.190Z,98565.63
2018-01-28T04:12:25.813Z,98561.80
2018-01-28T04:12:57.438Z,98568.66
2018-01-28T04:13:29.058Z,98563.59
2018-01-28T04:14:00.677Z,98566.15
2018-01-28T04:14:32.298Z,98570.88
2018-01-28T04:15:03.930Z,98563.64
2018-01-28T04:15:35.558Z,98556.39
2018-01-28T04:16:07.221Z,98557.58
2018-01-28T04:16:38.859Z,98560.19
2018-01-28T04:17:10.482Z,98550.85
2018-01-28T04:17:42.109Z,98553.45
2018-01-28T04:18:13.733Z,98557.72
2018-01-28T04:18:45.361Z,98553.89
2018-01-28T04:19:17.070Z,98556.44
2018-01-28T04:19:48.702Z,98544.98
2018-01-28T04:20:20.328Z,98548.81
2018-01-28T04:20:51.957Z,98545.45
2018-01-28T04:21:23.627Z,98543.74
2018-01-28T04:21:55.258Z,98536.55
2018-01-28T04:22:26.877Z,98540.00
2018-01-28T04:22:58.506Z,98540.00
2018-01-28T04:23:30.141Z,98540.08
2018-01-28T04:24:01.766Z,98533.28
2018-01-28T04:24:33.393Z,98534.16
2018-01-28T04:25:05.018Z,98535.45
2018-01-28T04:25:36.646Z,98532.50
2018-01-28T04:26:08.310Z,98530.80
2018-01-28T04:26:39.941Z,98535.53
2018-01-28T04:27:11.577Z,98532.13
2018-01-28T04:27:43.301Z,98527.87
2018-01-28T04:28:14.914Z,98532.16
2018-01-28T04:28:46.537Z,98533.45
2018-01-28T04:29:18.162Z,98526.67
2018-01-28T04:29:49.786Z,98530.55
2018-01-28T04:30:21.405Z,98527.56
2018-01-28T04:30:53.025Z,98531.40
2018-01-28T04:31:24.690Z,98521.60
2018-01-28T04:31:56.315Z,98531.44
2018-01-28T04:32:27.937Z,98519.09
2018-01-28T04:32:59.557Z,98523.39
2018-01-28T04:33:31.226Z,98528.08
2018-01-28T04:34:02.854Z,98520.84
2018-01-28T04:34:34.473Z,98521.30
2018-01-28T04:35:06.102Z,98517.01
2018-01-28T04:35:37.730Z,98514.45
2018-01-28T04:36:09.398Z,98521.30
2018-01-28T04:36:41.021Z,98524.24
2018-01-28T04:37:12.641Z,98517.47
2018-01-28T04:37:44.261Z,98520.02
2018-01-28T04:38:15.886Z,98518.75
2018-01-28T04:38:47.505Z,98511.51
2018-01-28T04:39:19.133Z,98514.87
2018-01-28T04:39:50.759Z,98508.10
2018-01-28T04:40:22.390Z,98512.36
2018-01-28T04:40:54.010Z,98502.98
2018-01-28T04:41:25.633Z,98508.91
2018-01-28T04:41:57.302Z,98508.53
2018-01-28T04:42:28.921Z,98512.41
2018-01-28T04:43:00.542Z,98514.57
2018-01-28T04:43:32.236Z,98514.15
2018-01-28T04:44:03.856Z,98512.83
2018-01-28T04:44:35.477Z,98508.15
2018-01-28T04:45:07.097Z,98504.74
2018-01-28T04:45:38.721Z,98514.58
2018-01-28T04:46:10.387Z,98515.81
2018-01-28T04:46:41.997Z,98517.52
2018-01-28T04:47:13.833Z,98513.69
2018-01-28T04:47:45.453Z,98511.17
2018-01-28T04:48:17.082Z,98514.16
2018-01-28T04:48:48.709Z,98511.17
2018-01-28T04:49:20.337Z,98520.92
2018-01-28T04:49:51.972Z,98511.64
2018-01-28T04:50:23.601Z,98520.53
2018-01-28T04:50:55.221Z,98522.63
2018-01-28T04:51:26.841Z,98520.50
2018-01-28T04:51:58.469Z,98516.67
2018-01-28T04:52:30.129Z,98522.63
2018-01-28T04:53:01.754Z,98523.52
2018-01-28T04:53:33.422Z,98523.52
2018-01-28T04:54:05.052Z,98517.59
2018-01-28T04:54:36.705Z,98515.42
2018-01-28T04:55:08.334Z,98513.73
2018-01-28T04:55:39.953Z,98517.55
2018-01-28T04:56:11.578Z,98517.09
2018-01-28T04:56:43.205Z,98511.12
2018-01-28T04:57:14.850Z,98506.02
2018-01-28T04:57:46.493Z,98510.70
2018-01-28T04:58:18.149Z,98507.30
2018-01-28T04:58:49.793Z,98509.84
2018-01-28T04:59:21.433Z,98506.44
2018-01-28T04:59:53.066Z,98508.53
2018-01-28T05:00:24.714Z,98511.94
2018-01-28T05:00:56.361Z,98521.70
2018-01-28T05:01:28.625Z,98513.21
2018-01-28T05:02:01.113Z,98516.19
2018-01-28T05:02:32.770Z,98517.05
2018-01-28T05:03:04.405Z,98524.67
2018-01-28T05:03:36.065Z,98523.83
2018-01-28T05:04:07.697Z,98524.71
2018-01-28T05:04:39.350Z,98520.41
2018-01-28T05:05:10.997Z,98529.78
2018-01-28T05:05:42.689Z,98527.65
2018-01-28T05:06:14.314Z,98521.69
2018-01-28T05:06:45.938Z,98529.31
2018-01-28T05:07:17.557Z,98528.45
2018-01-28T05:07:49.529Z,98530.98
2018-01-28T05:08:21.178Z,98527.14
2018-01-28T05:08:52.822Z,98525.86
2018-01-28T05:09:24.457Z,98530.51
2018-01-28T05:09:56.356Z,98528.34
2018-01-28T05:10:28.018Z,98525.39
2018-01-28T05:10:59.690Z,98527.91
2018-01-28T05:11:31.314Z,98538.13
2018-01-28T05:12:02.961Z,98534.73
2018-01-28T05:12:34.605Z,98538.56
2018-01-28T05:13:06.269Z,98536.00
2018-01-28T05:13:37.926Z,98536.85
2018-01-28T05:14:09.571Z,98528.72
2018-01-28T05:14:41.210Z,98532.98
2018-01-28T05:15:12.837Z,98533.83
2018-01-28T05:15:44.482Z,98532.13
2018-01-28T05:16:16.129Z,98526.59
2018-01-28T05:16:47.769Z,98535.53
2018-01-28T05:17:19.479Z,98538.09
2018-01-28T05:17:51.101Z,98536.81
2018-01-28T05:18:22.786Z,98539.36
2018-01-28T05:18:54.436Z,98533.83
2018-01-28T05:19:26.077Z,98544.05
2018-01-28T05:19:57.730Z,98533.02
2018-01-28T05:20:29.379Z,98544.09
2018-01-28T05:21:01.029Z,98543.66
2018-01-28T05:21:32.710Z,98547.92
2018-01-28T05:22:04.349Z,98546.66
2018-01-28T05:22:36.038Z,98544.95
2018-01-28T05:23:07.689Z,98545.84
2018-01-28T05:23:39.338Z,98548.39
2018-01-28T05:24:10.989Z,98542.00
2018-01-28T05:24:42.637Z,98547.97
2018-01-28T05:25:14.258Z,98542.82
2018-01-28T05:25:45.893Z,98539.45
2018-01-28T05:26:17.533Z,98550.11
2018-01-28T05:26:49.175Z,98545.37
2018-01-28T05:27:20.876Z,98545.41
2018-01-28T05:27:52.497Z,98561.14
2018-01-28T05:28:24.141Z,98554.36
2018-01-28T05:28:55.766Z,98558.20
2018-01-28T05:29:27.394Z,98568.88
2018-01-28T05:29:59.013Z,98562.50
2018-01-28T05:30:30.633Z,98558.27
2018-01-28T05:31:02.262Z,98559.95
2018-01-28T05:31:33.881Z,98571.05
2018-01-28T05:32:05.507Z,98571.91
2018-01-28T05:32:37.189Z,98567.22
2018-01-28T05:33:08.813Z,98563.81
2018-01-28T05:33:40.434Z,98568.50
2018-01-28T05:34:12.053Z,98573.19
2018-01-28T05:34:43.677Z,98566.80
2018-01-28T05:35:15.306Z,98562.55
2018-01-28T05:35:46.930Z,98565.56
2018-01-28T05:36:18.550Z,98568.12
2018-01-28T05:36:50.174Z,98571.95
2018-01-28T05:37:21.801Z,98574.93
2018-01-28T05:37:53.465Z,98576.20
2018-01-28T05:38:25.141Z,98570.25
2018-01-28T05:38:56.770Z,98574.50
2018-01-28T05:39:28.394Z,98571.64
2018-01-28T05:40:00.024Z,98582.63
2018-01-28T05:40:31.650Z,98580.05
2018-01-28T05:41:03.269Z,98580.08
2018-01-28T05:41:34.898Z,98576.67
2018-01-28T05:42:06.521Z,98585.19
2018-01-28T05:42:38.141Z,98583.06
2018-01-28T05:43:09.757Z,98588.17
2018-01-28T05:43:41.439Z,98589.03
2018-01-28T05:44:13.066Z,98587.78
2018-01-28T05:44:44.689Z,98589.06
2018-01-28T05:45:16.313Z,98584.42
2018-01-28T05:45:47.933Z,98586.55
2018-01-28T05:46:19.557Z,98589.53
2018-01-28T05:46:51.178Z,98593.33
2018-01-28T05:47:22.801Z,98593.36
2018-01-28T05:47:55.475Z,98592.09
2018-01-28T05:48:27.107Z,98598.05
2018-01-28T05:48:58.769Z,98594.25
2018-01-28T05:49:30.397Z,98595.92
2018-01-28T05:50:02.065Z,98592.94
2018-01-28T05:50:33.693Z,98589.95
2018-01-28T05:51:05.313Z,98595.06
2018-01-28T05:51:36.937Z,98589.99
2018-01-28T05:52:08.566Z,98595.11
2018-01-28T05:52:40.189Z,98593.44
2018-01-28T05:53:11.819Z,98595.53
2018-01-28T05:53:43.441Z,98595.11
2018-01-28T05:54:15.065Z,98592.98
2018-01-28T05:54:46.729Z,98594.67
2018-01-28T05:55:18.369Z,98594.68
2018-01-28T05:55:49.992Z,98601.06
2018-01-28T05:56:21.620Z,98601.10
2018-01-28T05:56:53.261Z,98600.25
2018-01-28T05:57:24.953Z,98597.70
2018-01-28T05:57:56.582Z,98598.13
2018-01-28T05:58:28.206Z,98600.67
2018-01-28T05:58:59.829Z,98603.23
2018-01-28T05:59:31.453Z,98602.38
2018-01-28T06:00:03.097Z,98606.22
2018-01-28T06:00:34.717Z,98605.40
2018-01-28T06:01:06.340Z,98608.38
2018-01-28T06:01:37.961Z,98601.99
2018-01-28T06:02:09.610Z,98607.95
2018-01-28T06:02:41.314Z,98600.33
2018-01-28T06:03:12.942Z,98601.14
2018-01-28T06:03:44.570Z,98601.17
2018-01-28T06:04:16.198Z,98600.33
2018-01-28T06:04:47.846Z,98596.89
2018-01-28T06:05:19.471Z,98602.42
2018-01-28T06:05:51.102Z,98606.68
2018-01-28T06:06:22.725Z,98602.45
2018-01-28T06:06:54.350Z,98601.14
2018-01-28T06:07:25.973Z,98605.01
2018-01-28T06:07:57.593Z,98607.56
2018-01-28T06:08:29.213Z,98611.36
2018-01-28T06:09:00.837Z,98606.68
2018-01-28T06:09:32.469Z,98609.66
2018-01-28T06:10:04.097Z,98606.25
2018-01-28T06:10:35.717Z,98607.10
2018-01-28T06:11:07.373Z,98600.33
2018-01-28T06:11:38.998Z,98601.99